Airfield :
LOGIN :

Register | Disclaimer

   EN    FR    IT 

 










Legend :    VFR   Marginal VFR   IFR   Intensive IFR   Very Intensive IFR
Visi :
Ceiling :
>= 8 km
>= 3000ft
5 to 8 km
1000 to 3000 ft
1500m to 5 km
500 to 1000 ft
800 to 1500m
200 to 500 ft
< 800m
< 200 ft
Symbols :   Thunderstorms  Fog  Heavy snow  Heavy precipitations  Wind > 20 kt
SIGMETs :     Misc.  Thunderstorms  Icing  Turbulence  Mountain Waves  Volcanic Ashes







- Airport Elevation : 32 ft
- IATA code : LKZ


EGUL - RAF Lakenheath

CURRENT METAR :
  • 210011Z AUTO 07007KT 9999 -DZ BKN016 04/02 A2968 RMK AO2 RAE07DZB07 SLP054 $

EXPIRED METARs :
  • 202356Z AUTO 05005KT 9999 -RA FEW019 04/02 A2968 RMK AO2 DZB04E22RAB22 SLP054 P0001 60002 T00360021 10041 20036 400600036 57012 $
  • 202350Z AUTO 05005KT 9999 -RA FEW019 04/02 A2968 RMK AO2 DZB04E22RAB22 SLP054 $
  • 202323Z AUTO 04006KT 9999 CLR 04/02 A2969 RMK AO2 DZB04E22RAB22 SLP058 $
  • 202304Z AUTO 04005KT 9999 -DZ FEW033 04/02 A2969 RMK AO2 DZB04 SLP058 $
  • 202245Z AUTO 03008KT 9999 FEW031 04/02 A2969 RMK AO2 DZB2156E44 SLP058 $
  • 202208Z AUTO 04007KT 9999 CLR 04/02 A2970 RMK AO2 DZB2156 SLP061 $
  • 202128Z AUTO 03006KT 9999 CLR 04/02 A2971 RMK AO2 DZB01E08RAB08E18DZB18E20RAB20 SLP064 $

TAF TAF EGUL
Valid from the 20 at 20:00 until the 22 at 02:00 UTC


202004Z 2020/2202 07009KT 8000 -RA BKN020 QNH2970INS
BECMG 2100/2101 VRB06KT 6000 -RA OVC015 QNH2970INS
TEMPO 2101/2107 BKN006 BR
BECMG 2106/2107 VRB06KT 9999 NSW SCT020 BKN025 QNH2978INS
BECMG 2116/2117 VRB06KT 9999 BKN020 QNH3003INS
BECMG 2121/2122 VRB06KT 8000 -RA BKN015 QNH3006INS TX07/2113Z TN01/2119Z
No reported NOTAMs for that airfield.
1 SIGMET reported for the London FIR (EGTT) :
 
Severe mountain waves
EGTT SIGMET 04 VALID 202100/210100 EGRR
EGTT LONDON FIR SEV MTW FCST WI N5355 W00132 - N5232 W00304 - N5221 W00530 - N5500 W00530 - N5500 W00159 - N5355 W00132 FL030/120 MOV N 05KT NC=



MET'MAP, your aeronautical weather chart ! - Copyright ORBIFLY December 2007 - Disclaimer

ORBIFLY MET'MAP TEAM :

Programming & Development : Alexandra Zaïnal
Concept & Development : Baudouin d'Aumeries
Co-Development & Prog : Marc-Olivier Méhu
Technical & hardware support : Manuel Goepfert

Contact : metmap@orbifly.com




SOURCES & CREDITS :

   NOAA